Terminal Aerodrome Forecast
Issued by NWS

Home | Current Version | Previous Version | Text Only | Print | Product List | Glossary On
Versions: 1 2 3 4 5 6 7 8 9 10 11
114
FTUS45 KVEF 281123
TAFBIH
TAF
KBIH 281123Z 2812/2912 35016G24KT P6SM SCT250
     FM281600 35018G28KT P6SM FEW250
     FM282100 36025G34KT P6SM SKC
     FM290500 35012G22KT P6SM FEW250=

USA.gov is the U.S. government's official web portal to all federal, state and local government web resources and services.